Time;durP1;ratioP1;P1;durP2;ratioP2;P2;SDS_P1;SDS_P2;PMS_P1;PMS_P2;Temp;Humidity;BMP_temperature;BMP_pressure;BME280_temperature;BME280_humidity;BME280_pressure;Samples;Min_cycle;Max_cycle;Signal;HPM_P1;HPM_P2
2021/03/07 00:03:51;;;;;;;30.73;19.10;;;;;-1.70;102292.00;;;;10505915;28;20705;-74
2021/03/07 00:08:52;;;;;;;29.87;19.43;;;;;-1.70;102297.00;;;;10523018;28;20528;-74
2021/03/07 00:13:55;;;;;;;29.07;19.33;;;;;-1.80;102297.00;;;;10522997;28;20226;-74
2021/03/07 00:18:56;;;;;;;31.63;19.23;;;;;-1.90;102304.00;;;;10539597;28;20196;-74
2021/03/07 00:23:58;;;;;;;31.37;20.30;;;;;-1.90;102289.00;;;;10522123;28;20209;-75
2021/03/07 00:29:01;;;;;;;32.37;19.70;;;;;-2.00;102294.00;;;;10539148;28;20261;-75
2021/03/07 00:34:03;;;;;;;29.47;18.17;;;;;-2.10;102299.00;;;;10538794;28;20181;-75
2021/03/07 00:39:05;;;;;;;28.53;19.63;;;;;-2.10;102303.00;;;;10522273;28;20288;-75
2021/03/07 00:44:16;;;;;;;33.57;21.10;;;;;-2.10;102304.00;;;;10522072;28;20209;-75
2021/03/07 00:49:28;;;;;;;34.20;20.60;;;;;-2.10;102294.00;;;;10520963;28;20181;-75
2021/03/07 00:54:30;;;;;;;26.00;17.40;;;;;-2.20;102290.00;;;;10504222;28;20219;-75
2021/03/07 00:59:31;;;;;;;26.97;17.30;;;;;-2.30;102287.00;;;;10538433;28;20235;-75
2021/03/07 01:04:32;;;;;;;25.23;17.00;;;;;-2.30;102289.00;;;;10503923;28;20208;-75
2021/03/07 01:09:34;;;;;;;24.67;16.47;;;;;-2.40;102273.00;;;;10504088;28;20296;-75
2021/03/07 01:14:37;;;;;;;23.50;15.73;;;;;-2.40;102276.00;;;;10538097;28;20209;-75
2021/03/07 01:19:38;;;;;;;23.83;16.33;;;;;-2.40;102280.00;;;;10520507;28;20724;-75
2021/03/07 01:24:39;;;;;;;22.97;14.90;;;;;-2.40;102272.00;;;;10538888;28;20196;-75
2021/03/07 01:29:41;;;;;;;19.93;15.80;;;;;-2.50;102275.00;;;;10537241;28;20711;-75
2021/03/07 01:34:42;;;;;;;26.20;16.30;;;;;-2.50;102263.00;;;;10520312;28;20237;-75
2021/03/07 01:39:43;;;;;;;25.20;15.70;;;;;-2.60;102259.00;;;;10537755;28;20232;-75
2021/03/07 01:44:56;;;;;;;25.73;16.27;;;;;-2.60;102256.00;;;;10537527;28;20208;-75
2021/03/07 01:49:58;;;;;;;19.73;15.63;;;;;-2.70;102244.00;;;;10503665;28;20192;-75
2021/03/07 01:55:01;;;;;;;25.93;16.53;;;;;-2.70;102230.00;;;;10486591;28;20193;-75
2021/03/07 02:00:08;;;;;;;23.50;16.90;;;;;-2.80;102222.00;;;;10504085;28;20242;-75
2021/03/07 02:05:16;;;;;;;24.10;17.07;;;;;-2.80;102213.00;;;;10545111;28;20205;-75
2021/03/07 02:10:24;;;;;;;28.10;19.30;;;;;-2.90;102212.00;;;;10544684;28;20284;-75
2021/03/07 02:15:29;;;;;;;29.57;17.87;;;;;-2.90;102211.00;;;;10527569;28;20254;-75
2021/03/07 02:20:33;;;;;;;26.40;17.43;;;;;-2.90;102206.00;;;;10527419;28;20659;-75
2021/03/07 02:25:36;;;;;;;26.43;17.13;;;;;-2.90;102204.00;;;;10526734;28;20240;-75
2021/03/07 02:30:37;;;;;;;24.37;17.67;;;;;-2.90;102188.00;;;;10526756;28;20196;-75
2021/03/07 02:35:46;;;;;;;26.63;18.03;;;;;-3.00;102191.00;;;;10527363;28;20592;-74
2021/03/07 02:40:52;;;;;;;23.10;17.73;;;;;-3.10;102176.00;;;;10493372;28;20193;-75
2021/03/07 02:45:59;;;;;;;21.87;17.10;;;;;-3.10;102171.00;;;;10451255;28;20243;-74
2021/03/07 02:51:03;;;;;;;25.57;17.40;;;;;-3.10;102153.00;;;;10484504;28;20189;-75
2021/03/07 02:56:12;;;;;;;23.07;16.70;;;;;-3.10;102156.00;;;;10484195;28;20708;-75
2021/03/07 03:01:16;;;;;;;22.13;16.27;;;;;-3.10;102160.00;;;;10515718;28;20231;-75
2021/03/07 03:06:19;;;;;;;27.50;18.37;;;;;-3.10;102156.00;;;;10543771;28;20192;-75
2021/03/07 03:11:24;;;;;;;27.77;17.33;;;;;-3.10;102142.00;;;;10486511;28;20229;-75
2021/03/07 03:16:28;;;;;;;23.90;16.23;;;;;-3.10;102134.00;;;;10501130;28;20235;-75
2021/03/07 03:21:29;;;;;;;24.93;17.17;;;;;-3.10;102131.00;;;;10483793;28;20190;-75
2021/03/07 03:26:31;;;;;;;25.40;16.47;;;;;-3.20;102130.00;;;;10449736;28;20240;-75
2021/03/07 03:31:34;;;;;;;23.60;17.20;;;;;-3.20;102129.00;;;;10450008;28;20235;-75
2021/03/07 03:36:38;;;;;;;21.73;15.80;;;;;-3.20;102134.00;;;;10466377;28;20616;-75
2021/03/07 03:41:40;;;;;;;22.23;16.80;;;;;-3.20;102127.00;;;;10489649;28;20200;-75
2021/03/07 03:46:45;;;;;;;26.07;18.27;;;;;-3.30;102133.00;;;;10506857;28;20201;-75
2021/03/07 03:51:49;;;;;;;26.10;18.63;;;;;-3.30;102128.00;;;;10503829;28;20652;-75
2021/03/07 03:56:51;;;;;;;25.63;17.23;;;;;-3.30;102120.00;;;;10481917;28;20194;-75
2021/03/07 04:01:53;;;;;;;22.73;17.00;;;;;-3.40;102126.00;;;;10465134;28;20255;-75
2021/03/07 04:06:56;;;;;;;28.47;19.03;;;;;-3.40;102126.00;;;;10474229;28;20200;-75
2021/03/07 04:11:58;;;;;;;26.80;19.23;;;;;-3.40;102122.00;;;;10489343;28;20362;-75
2021/03/07 04:17:02;;;;;;;31.87;18.97;;;;;-3.50;102134.00;;;;10505781;28;20189;-75
2021/03/07 04:22:04;;;;;;;28.93;21.87;;;;;-3.50;102128.00;;;;10505057;28;20189;-75
2021/03/07 04:27:07;;;;;;;30.87;20.80;;;;;-3.40;102127.00;;;;10505446;28;20658;-75
2021/03/07 04:32:10;;;;;;;28.40;19.13;;;;;-3.50;102136.00;;;;10540447;28;20501;-75
2021/03/07 04:37:11;;;;;;;27.87;19.30;;;;;-3.50;102137.00;;;;10488324;28;20200;-75
2021/03/07 04:42:13;;;;;;;30.37;19.57;;;;;-3.60;102126.00;;;;10488224;28;20193;-75
2021/03/07 04:47:14;;;;;;;29.53;19.93;;;;;-3.60;102128.00;;;;10505181;28;20264;-75
2021/03/07 04:52:16;;;;;;;26.17;18.87;;;;;-3.60;102121.00;;;;10521990;28;20219;-75
2021/03/07 04:57:17;;;;;;;28.77;18.53;;;;;-3.70;102126.00;;;;10488093;28;20196;-75
2021/03/07 05:02:19;;;;;;;27.17;19.57;;;;;-3.70;102122.00;;;;10521092;28;20193;-75
2021/03/07 05:07:20;;;;;;;32.77;21.23;;;;;-3.70;102112.00;;;;10504209;28;20231;-75
2021/03/07 05:12:22;;;;;;;27.43;19.50;;;;;-3.80;102113.00;;;;10520707;28;20263;-75
2021/03/07 05:17:37;;;;;;;33.97;20.40;;;;;-3.80;102106.00;;;;10520970;28;20192;-75
2021/03/07 05:22:39;;;;;;;25.27;18.93;;;;;-3.80;102117.00;;;;10539045;28;20212;-75
2021/03/07 05:27:40;;;;;;;25.73;18.57;;;;;-3.80;102115.00;;;;10538346;28;20189;-75
2021/03/07 05:32:42;;;;;;;29.27;19.83;;;;;-3.80;102109.00;;;;10520629;28;20185;-75
2021/03/07 05:37:43;;;;;;;29.47;19.40;;;;;-3.90;102110.00;;;;10544816;28;20196;-75
2021/03/07 05:42:45;;;;;;;31.87;19.53;;;;;-3.90;102107.00;;;;10512187;28;20228;-75
2021/03/07 05:48:02;;;;;;;23.57;17.07;;;;;-3.90;102105.00;;;;10514251;28;20184;-75
2021/03/07 05:53:03;;;;;;;30.60;21.53;;;;;-3.90;102117.00;;;;10528348;28;20683;-75
2021/03/07 05:58:06;;;;;;;27.97;19.57;;;;;-4.00;102104.00;;;;10528929;28;20551;-75
2021/03/07 06:03:08;;;;;;;25.17;18.67;;;;;-4.00;102108.00;;;;10527873;28;20216;-75
2021/03/07 06:08:09;;;;;;;26.83;18.83;;;;;-4.00;102115.00;;;;10527836;28;20655;-75
2021/03/07 06:13:10;;;;;;;28.63;20.70;;;;;-3.90;102105.00;;;;10528065;28;20675;-75
2021/03/07 06:18:27;;;;;;;32.60;21.13;;;;;-3.90;102097.00;;;;10526122;28;20202;-75
2021/03/07 06:23:36;;;;;;;31.00;19.40;;;;;-3.90;102098.00;;;;10501992;28;20216;-75
2021/03/07 06:28:37;;;;;;;33.90;21.80;;;;;-3.80;102096.00;;;;10519229;28;20190;-75
2021/03/07 06:33:38;;;;;;;30.13;20.43;;;;;-3.80;102093.00;;;;10496727;28;20191;-75
2021/03/07 06:38:47;;;;;;;26.27;18.80;;;;;-3.70;102101.00;;;;10526404;28;20246;-75
2021/03/07 06:43:49;;;;;;;30.87;19.40;;;;;-3.60;102089.00;;;;10526007;28;20201;-75
2021/03/07 06:48:51;;;;;;;30.90;20.07;;;;;-3.40;102092.00;;;;10524938;28;20594;-75
2021/03/07 06:53:53;;;;;;;30.87;21.13;;;;;-3.20;102092.00;;;;10526199;28;20181;-75
2021/03/07 06:59:11;;;;;;;29.03;20.53;;;;;-3.00;102101.00;;;;10508444;28;20196;-75
2021/03/07 07:04:13;;;;;;;32.50;20.43;;;;;-2.70;102099.00;;;;10525394;28;20616;-75
2021/03/07 07:09:24;;;;;;;32.53;22.97;;;;;-2.40;102096.00;;;;10546245;28;20555;-75
2021/03/07 07:14:40;;;;;;;26.97;19.63;;;;;-2.10;102095.00;;;;10508232;28;20247;-75
2021/03/07 07:19:43;;;;;;;31.10;22.00;;;;;-1.70;102100.00;;;;10507907;28;20248;-75
2021/03/07 07:24:45;;;;;;;30.50;22.60;;;;;-1.30;102098.00;;;;10525028;28;20564;-75
2021/03/07 07:29:46;;;;;;;29.10;20.93;;;;;-0.80;102099.00;;;;10491398;28;20216;-75
2021/03/07 07:34:51;;;;;;;27.77;19.60;;;;;-0.40;102103.00;;;;10512098;28;20760;-75
2021/03/07 07:39:54;;;;;;;23.37;17.57;;;;;-0.10;102093.00;;;;10524411;28;20254;-76
2021/03/07 07:44:58;;;;;;;22.87;17.33;;;;;0.20;102101.00;;;;10480295;28;20217;-76
2021/03/07 07:50:02;;;;;;;29.27;19.57;;;;;0.50;102100.00;;;;10465370;28;20755;-75
2021/03/07 07:55:09;;;;;;;22.20;17.37;;;;;0.80;102099.00;;;;10448166;28;20190;-76
2021/03/07 08:00:11;;;;;;;24.43;18.50;;;;;1.00;102099.00;;;;10481476;28;20232;-76
2021/03/07 08:05:24;;;;;;;24.10;19.13;;;;;1.20;102089.00;;;;10481806;28;20213;-76
2021/03/07 08:10:40;;;;;;;21.67;16.53;;;;;1.60;102098.00;;;;10482890;28;20194;-76
2021/03/07 08:15:44;;;;;;;25.87;17.43;;;;;1.80;102097.00;;;;10489948;28;20211;-76
2021/03/07 08:20:46;;;;;;;24.13;16.93;;;;;2.10;102085.00;;;;10506033;28;20193;-76
2021/03/07 08:25:50;;;;;;;25.13;18.07;;;;;2.50;102094.00;;;;10505771;28;20683;-76
2021/03/07 08:31:15;;;;;;;22.77;17.30;;;;;3.20;102087.00;;;;10488932;28;20196;-76
2021/03/07 08:36:22;;;;;;;24.87;16.67;;;;;3.90;102073.00;;;;10483889;28;20193;-76
2021/03/07 08:41:36;;;;;;;24.30;16.20;;;;;4.10;102076.00;;;;10518968;28;20204;-76
2021/03/07 08:46:40;;;;;;;24.93;16.10;;;;;4.10;102076.00;;;;10488318;28;20205;-76
2021/03/07 08:51:45;;;;;;;17.37;14.63;;;;;4.30;102067.00;;;;10521250;28;20185;-76
2021/03/07 08:56:51;;;;;;;16.40;13.87;;;;;4.60;102061.00;;;;10487584;28;20235;-76
2021/03/07 09:01:52;;;;;;;19.17;14.27;;;;;4.90;102060.00;;;;10487861;28;20204;-76
2021/03/07 09:06:54;;;;;;;21.57;14.83;;;;;5.20;102060.00;;;;10505141;28;20801;-76
2021/03/07 09:12:04;;;;;;;16.97;14.20;;;;;5.50;102061.00;;;;10537539;28;20626;-76
2021/03/07 09:17:21;;;;;;;19.20;14.77;;;;;5.70;102065.00;;;;10503431;28;20639;-76
2021/03/07 09:22:28;;;;;;;18.97;13.97;;;;;6.00;102067.00;;;;10487695;28;20643;-76
2021/03/07 09:27:35;;;;;;;18.83;14.47;;;;;6.10;102060.00;;;;10521293;28;20189;-76
2021/03/07 09:32:41;;;;;;;21.17;14.97;;;;;6.30;102048.00;;;;10503630;28;20200;-76
2021/03/07 09:37:44;;;;;;;24.63;16.87;;;;;6.60;102050.00;;;;10527764;28;20203;-76
2021/03/07 09:42:56;;;;;;;17.73;14.63;;;;;6.80;102041.00;;;;10560235;28;20184;-76
2021/03/07 09:47:58;;;;;;;18.93;14.20;;;;;7.00;102047.00;;;;10520644;28;20230;-76
2021/03/07 09:53:01;;;;;;;25.33;13.87;;;;;7.30;102038.00;;;;10503540;28;20219;-76
2021/03/07 09:58:08;;;;;;;19.27;13.83;;;;;7.40;102032.00;;;;10520439;28;20271;-76
2021/03/07 10:03:24;;;;;;;23.70;15.37;;;;;7.70;102024.00;;;;10519817;28;20213;-76
2021/03/07 10:08:26;;;;;;;20.90;15.20;;;;;8.00;102028.00;;;;10487278;28;20185;-75
2021/03/07 10:13:28;;;;;;;19.80;14.20;;;;;8.30;102024.00;;;;10503023;28;20698;-76
2021/03/07 10:18:30;;;;;;;12.37;9.27;;;;;8.70;102016.00;;;;10502698;28;20272;-75
2021/03/07 10:23:33;;;;;;;10.70;9.13;;;;;9.10;102017.00;;;;10524363;28;20683;-76
2021/03/07 10:28:36;;;;;;;12.87;9.50;;;;;9.50;102014.00;;;;10510342;28;20203;-76
2021/03/07 10:33:38;;;;;;;11.47;8.37;;;;;9.80;102007.00;;;;10510142;28;20189;-76
2021/03/07 10:38:42;;;;;;;10.90;8.63;;;;;10.10;102011.00;;;;10509477;28;20544;-76
2021/03/07 10:43:52;;;;;;;11.90;9.37;;;;;10.60;102012.00;;;;10526314;28;20263;-74
2021/03/07 10:48:55;;;;;;;8.70;5.90;;;;;11.00;102014.00;;;;10522876;28;20652;-74
2021/03/07 10:53:57;;;;;;;7.77;6.30;;;;;10.00;102017.00;;;;10492621;28;20293;-74
2021/03/07 10:58:59;;;;;;;8.87;6.43;;;;;9.10;102020.00;;;;10492202;28;20189;-74
2021/03/07 11:04:02;;;;;;;8.27;6.10;;;;;8.40;102010.00;;;;10504722;28;20213;-74
2021/03/07 11:09:04;;;;;;;9.30;6.27;;;;;8.30;102015.00;;;;10492171;28;20630;-75
2021/03/07 11:14:05;;;;;;;8.17;6.27;;;;;8.30;102012.00;;;;10509030;28;20318;-75
2021/03/07 11:19:06;;;;;;;7.07;4.83;;;;;8.60;102014.00;;;;10510161;28;20706;-74
2021/03/07 11:24:08;;;;;;;8.63;6.10;;;;;8.60;102009.00;;;;10483407;28;20295;-75
2021/03/07 11:29:10;;;;;;;9.43;5.30;;;;;9.50;101994.00;;;;10465893;28;20193;-75
2021/03/07 11:34:11;;;;;;;7.27;5.97;;;;;10.40;101990.00;;;;10505672;28;20536;-75
2021/03/07 11:39:12;;;;;;;8.63;5.87;;;;;10.30;101990.00;;;;10524130;28;20211;-75
2021/03/07 11:44:14;;;;;;;7.17;5.70;;;;;9.50;101984.00;;;;10489987;28;20254;-75
2021/03/07 11:49:15;;;;;;;7.63;5.43;;;;;9.80;101978.00;;;;10506939;28;20606;-75
2021/03/07 11:54:18;;;;;;;7.70;5.40;;;;;10.80;101974.00;;;;10493799;28;20190;-75
2021/03/07 11:59:20;;;;;;;7.00;5.40;;;;;11.40;101978.00;;;;10493936;28;20221;-75
2021/03/07 12:04:21;;;;;;;8.27;6.20;;;;;11.00;101968.00;;;;10523122;28;20216;-75
2021/03/07 12:09:23;;;;;;;10.17;5.70;;;;;9.70;101964.00;;;;10519453;28;20215;-75
2021/03/07 12:14:25;;;;;;;6.90;5.57;;;;;8.70;101958.00;;;;10505947;28;20262;-75
2021/03/07 12:19:27;;;;;;;7.37;5.60;;;;;9.90;101942.00;;;;10540504;28;20650;-75
2021/03/07 12:24:31;;;;;;;6.50;5.53;;;;;11.70;101930.00;;;;10521998;28;20278;-75
2021/03/07 12:29:36;;;;;;;7.43;5.10;;;;;13.20;101927.00;;;;10490122;28;20221;-75
2021/03/07 12:34:37;;;;;;;9.23;5.83;;;;;12.30;101935.00;;;;10478942;28;20200;-75
2021/03/07 12:39:39;;;;;;;6.63;5.23;;;;;10.90;101933.00;;;;10488495;28;20246;-75
2021/03/07 12:44:40;;;;;;;8.33;5.13;;;;;9.70;101934.00;;;;10504112;28;20223;-75
2021/03/07 12:49:41;;;;;;;5.87;4.67;;;;;9.30;101919.00;;;;10471781;28;20205;-74
2021/03/07 12:54:43;;;;;;;7.83;5.40;;;;;10.00;101905.00;;;;10463413;28;20208;-75
2021/03/07 12:59:45;;;;;;;6.37;4.70;;;;;11.60;101883.00;;;;10462550;28;20221;-75
2021/03/07 13:04:46;;;;;;;7.30;4.83;;;;;11.50;101882.00;;;;10505703;28;20239;-75
2021/03/07 13:09:48;;;;;;;6.47;5.17;;;;;10.20;101882.00;;;;10535036;28;20205;-75
2021/03/07 13:14:49;;;;;;;6.20;4.30;;;;;9.50;101873.00;;;;10479618;28;20198;-74
2021/03/07 13:19:51;;;;;;;9.87;4.07;;;;;9.10;101873.00;;;;10479307;28;20201;-74
2021/03/07 13:24:52;;;;;;;5.70;4.17;;;;;10.70;101847.00;;;;10462131;28;20754;-74
2021/03/07 13:29:53;;;;;;;7.17;5.03;;;;;12.20;101842.00;;;;10531009;28;20223;-74
2021/03/07 13:34:55;;;;;;;4.90;3.73;;;;;11.40;101848.00;;;;10502839;28;20981;-75
2021/03/07 13:39:56;;;;;;;4.37;3.50;;;;;10.20;101841.00;;;;10481880;28;20205;-75
2021/03/07 13:44:57;;;;;;;6.80;4.63;;;;;10.00;101836.00;;;;10503486;28;20189;-74
2021/03/07 13:49:58;;;;;;;4.80;4.07;;;;;11.20;101828.00;;;;10503535;28;20213;-74
2021/03/07 13:55:02;;;;;;;6.30;4.50;;;;;12.70;101805.00;;;;10521570;28;20571;-75
2021/03/07 14:00:06;;;;;;;5.03;4.23;;;;;12.20;101821.00;;;;10510942;28;20200;-74
2021/03/07 14:05:14;;;;;;;6.07;4.90;;;;;10.50;101823.00;;;;10527227;28;20181;-74
2021/03/07 14:10:17;;;;;;;6.33;4.47;;;;;9.20;101817.00;;;;10523953;28;20196;-74
2021/03/07 14:15:18;;;;;;;7.10;4.70;;;;;8.60;101810.00;;;;10510225;28;20564;-74
2021/03/07 14:20:20;;;;;;;7.27;4.50;;;;;10.70;101806.00;;;;10509687;28;20280;-74
2021/03/07 14:25:21;;;;;;;5.33;4.83;;;;;13.20;101795.00;;;;10527230;28;21041;-75
2021/03/07 14:30:23;;;;;;;4.90;4.40;;;;;15.50;101789.00;;;;10493921;28;20531;-75
2021/03/07 14:35:24;;;;;;;5.90;5.30;;;;;15.40;101794.00;;;;10510192;28;20536;-74
2021/03/07 14:40:26;;;;;;;5.57;4.93;;;;;11.90;101803.00;;;;10463152;28;20680;-74
2021/03/07 14:45:27;;;;;;;6.10;5.43;;;;;10.20;101803.00;;;;10467507;28;20213;-75
2021/03/07 14:50:29;;;;;;;6.20;5.30;;;;;10.80;101796.00;;;;10489487;28;20204;-74
2021/03/07 14:55:30;;;;;;;6.33;5.73;;;;;12.60;101775.00;;;;10550422;28;20196;-75
2021/03/07 15:00:31;;;;;;;7.23;4.77;;;;;14.50;101735.00;;;;10550531;28;20207;-75
2021/03/07 15:05:33;;;;;;;5.23;4.37;;;;;14.40;101756.00;;;;10537648;28;20220;-75
2021/03/07 15:10:34;;;;;;;5.37;3.97;;;;;12.00;101772.00;;;;10508674;28;20234;-75
2021/03/07 15:15:36;;;;;;;5.73;4.30;;;;;10.50;101767.00;;;;10525595;28;20212;-75
2021/03/07 15:20:37;;;;;;;6.00;4.23;;;;;9.70;101751.00;;;;10514159;28;20201;-75
2021/03/07 15:25:39;;;;;;;4.93;3.90;;;;;13.80;101715.00;;;;10482848;28;20186;-75
2021/03/07 15:30:40;;;;;;;5.00;4.00;;;;;13.80;101712.00;;;;10482935;28;20251;-75
2021/03/07 15:35:41;;;;;;;5.30;4.23;;;;;13.20;101715.00;;;;10553805;28;20207;-75
2021/03/07 15:40:43;;;;;;;5.03;4.20;;;;;11.90;101719.00;;;;10566486;28;20184;-74
2021/03/07 15:45:44;;;;;;;5.33;4.23;;;;;12.20;101714.00;;;;10507485;28;20655;-75
2021/03/07 15:50:46;;;;;;;4.20;3.80;;;;;11.50;101720.00;;;;10465146;28;20194;-75
2021/03/07 15:55:47;;;;;;;4.90;4.17;;;;;11.30;101717.00;;;;10481586;28;20214;-75
2021/03/07 16:00:49;;;;;;;8.17;5.23;;;;;10.40;101726.00;;;;10541954;28;20662;-75
2021/03/07 16:05:50;;;;;;;10.30;6.43;;;;;9.50;101722.00;;;;10515696;28;20686;-75
2021/03/07 16:10:53;;;;;;;7.07;5.90;;;;;8.70;101719.00;;;;10520763;28;20267;-76
2021/03/07 16:15:54;;;;;;;7.03;5.80;;;;;8.00;101723.00;;;;10538917;28;20217;-76
2021/03/07 16:20:56;;;;;;;7.07;6.37;;;;;7.50;101717.00;;;;10504006;28;20200;-75
2021/03/07 16:26:02;;;;;;;7.43;6.03;;;;;7.20;101714.00;;;;10543628;28;20188;-75
2021/03/07 16:31:07;;;;;;;9.70;7.10;;;;;7.20;101714.00;;;;10540231;28;20192;-75
2021/03/07 16:36:10;;;;;;;8.03;6.90;;;;;7.30;101710.00;;;;10499826;28;20208;-75
2021/03/07 16:41:11;;;;;;;9.00;7.13;;;;;7.40;101711.00;;;;10522187;28;20648;-75
2021/03/07 16:46:21;;;;;;;8.60;6.97;;;;;7.40;101714.00;;;;10521728;28;20209;-75
2021/03/07 16:51:28;;;;;;;10.33;8.00;;;;;7.20;101706.00;;;;10502817;28;20684;-75
2021/03/07 16:56:31;;;;;;;9.30;7.67;;;;;6.90;101709.00;;;;10528069;28;20562;-74
2021/03/07 17:01:33;;;;;;;10.40;7.33;;;;;6.60;101714.00;;;;10521164;28;20228;-75
2021/03/07 17:06:35;;;;;;;11.67;8.83;;;;;6.20;101713.00;;;;10553682;28;20199;-74
2021/03/07 17:11:56;;;;;;;10.33;8.40;;;;;5.90;101717.00;;;;10519241;28;20204;-74
2021/03/07 17:17:19;;;;;;;12.20;7.23;;;;;5.60;101715.00;;;;10517746;28;20811;-73
2021/03/07 17:22:41;;;;;;;11.47;8.03;;;;;5.30;101722.00;;;;10521604;28;20543;-75
2021/03/07 17:27:42;;;;;;;9.43;7.87;;;;;5.10;101716.00;;;;10518938;28;21688;-75
2021/03/07 17:32:44;;;;;;;12.93;9.53;;;;;4.80;101716.00;;;;10535126;28;20466;-75
2021/03/07 17:37:45;;;;;;;11.37;8.97;;;;;4.70;101733.00;;;;10515911;28;20208;-75
2021/03/07 17:42:47;;;;;;;13.77;9.20;;;;;4.60;101734.00;;;;10538845;28;20187;-75
2021/03/07 17:48:07;;;;;;;19.40;9.87;;;;;4.70;101736.00;;;;10508065;28;20202;-75
2021/03/07 17:53:10;;;;;;;13.60;9.43;;;;;4.70;101736.00;;;;10552155;28;20185;-75
2021/03/07 17:58:11;;;;;;;12.77;9.97;;;;;4.70;101753.00;;;;10509217;28;20258;-75
2021/03/07 18:03:32;;;;;;;10.77;8.67;;;;;4.80;101749.00;;;;10528162;28;20261;-75
2021/03/07 18:08:46;;;;;;;12.87;8.93;;;;;4.80;101743.00;;;;10509099;28;20524;-75
2021/03/07 18:13:47;;;;;;;12.40;9.23;;;;;4.80;101752.00;;;;10502165;28;20209;-75
2021/03/07 18:18:49;;;;;;;13.53;9.47;;;;;4.80;101755.00;;;;10526841;28;20303;-75
2021/03/07 18:23:53;;;;;;;13.13;9.77;;;;;4.70;101764.00;;;;10508978;28;20800;-75
2021/03/07 18:28:54;;;;;;;11.77;8.57;;;;;4.60;101760.00;;;;10526605;28;20199;-75
2021/03/07 18:33:56;;;;;;;12.30;9.93;;;;;4.40;101763.00;;;;10534083;28;20315;-75
2021/03/07 18:38:58;;;;;;;11.40;9.77;;;;;4.40;101761.00;;;;10517814;28;20203;-75
2021/03/07 18:43:59;;;;;;;14.27;10.63;;;;;4.30;101771.00;;;;10507712;28;20181;-75
2021/03/07 18:49:02;;;;;;;15.03;10.13;;;;;4.20;101771.00;;;;10525854;28;20192;-75
2021/03/07 18:54:05;;;;;;;14.53;10.60;;;;;4.20;101779.00;;;;10492832;28;20205;-74
2021/03/07 18:59:10;;;;;;;15.87;10.07;;;;;4.10;101777.00;;;;10508386;28;20193;-74
2021/03/07 19:04:11;;;;;;;16.07;10.33;;;;;3.90;101785.00;;;;10528723;28;20201;-75
2021/03/07 19:09:16;;;;;;;14.07;9.70;;;;;3.80;101770.00;;;;10526053;28;20648;-75
2021/03/07 19:14:27;;;;;;;13.13;9.93;;;;;3.70;101771.00;;;;10503190;28;20236;-74
2021/03/07 19:19:29;;;;;;;15.30;9.93;;;;;3.60;101771.00;;;;10533703;28;20189;-74
2021/03/07 19:24:34;;;;;;;14.73;9.67;;;;;3.40;101763.00;;;;10504912;28;20679;-74
2021/03/07 19:29:37;;;;;;;15.80;10.40;;;;;3.30;101772.00;;;;10521267;28;20215;-74
2021/03/07 19:34:40;;;;;;;11.80;8.37;;;;;3.20;101763.00;;;;10509486;28;20258;-74
2021/03/07 19:39:47;;;;;;;10.60;8.53;;;;;3.00;101774.00;;;;10543747;28;20246;-74
2021/03/07 19:44:52;;;;;;;12.97;8.50;;;;;2.90;101779.00;;;;10514176;28;20188;-74
2021/03/07 19:50:16;;;;;;;11.00;8.03;;;;;2.90;101771.00;;;;10477394;28;20205;-75
2021/03/07 19:55:18;;;;;;;11.60;9.07;;;;;2.80;101776.00;;;;10511310;28;20283;-75
2021/03/07 20:00:24;;;;;;;12.53;8.63;;;;;2.80;101778.00;;;;10533826;28;20201;-75
2021/03/07 20:05:25;;;;;;;11.77;8.97;;;;;2.90;101781.00;;;;10547832;28;20188;-75
2021/03/07 20:10:31;;;;;;;11.63;8.77;;;;;3.00;101785.00;;;;10511677;28;20189;-73
2021/03/07 20:15:38;;;;;;;15.23;9.20;;;;;3.10;101788.00;;;;10518893;28;20204;-73
2021/03/07 20:20:42;;;;;;;13.70;9.07;;;;;3.20;101794.00;;;;10522921;28;20642;-74
2021/03/07 20:25:45;;;;;;;12.67;8.50;;;;;3.30;101793.00;;;;10523440;28;20265;-73
2021/03/07 20:30:47;;;;;;;10.43;8.50;;;;;3.40;101780.00;;;;10506007;28;20624;-73
2021/03/07 20:35:49;;;;;;;12.60;8.50;;;;;3.40;101793.00;;;;10489685;28;20209;-74
2021/03/07 20:40:55;;;;;;;10.80;7.63;;;;;3.50;101794.00;;;;10498514;28;20189;-74
2021/03/07 20:45:57;;;;;;;13.30;8.43;;;;;3.50;101801.00;;;;10471777;28;20656;-74
2021/03/07 20:51:06;;;;;;;13.07;8.03;;;;;3.60;101812.00;;;;10532812;28;20197;-74
2021/03/07 20:56:15;;;;;;;12.13;9.07;;;;;3.60;101813.00;;;;10491237;28;20197;-74
2021/03/07 21:01:17;;;;;;;13.10;8.23;;;;;3.60;101810.00;;;;10469059;28;20307;-74
2021/03/07 21:06:19;;;;;;;11.00;7.70;;;;;3.70;101824.00;;;;10502141;28;20197;-74
2021/03/07 21:11:24;;;;;;;11.37;7.63;;;;;3.70;101815.00;;;;10484120;28;20235;-74
2021/03/07 21:16:29;;;;;;;13.40;9.23;;;;;3.70;101819.00;;;;10502075;28;20228;-74
2021/03/07 21:21:31;;;;;;;15.37;8.27;;;;;3.70;101825.00;;;;10495585;28;20213;-74
2021/03/07 21:26:32;;;;;;;11.47;8.67;;;;;3.70;101838.00;;;;10500005;28;20197;-74
2021/03/07 21:31:33;;;;;;;20.20;11.93;;;;;3.60;101842.00;;;;10513120;28;20189;-74
2021/03/07 21:36:36;;;;;;;14.70;8.90;;;;;3.60;101835.00;;;;10466948;28;20240;-74
2021/03/07 21:41:38;;;;;;;12.80;8.53;;;;;3.60;101838.00;;;;10502086;28;20207;-74
2021/03/07 21:46:39;;;;;;;13.07;9.60;;;;;3.60;101839.00;;;;10460809;28;20769;-74
2021/03/07 21:51:40;;;;;;;14.90;9.77;;;;;3.60;101838.00;;;;10469048;28;20205;-74
2021/03/07 21:56:42;;;;;;;12.40;9.10;;;;;3.60;101847.00;;;;10488168;28;20237;-74
2021/03/07 22:01:43;;;;;;;13.30;8.67;;;;;3.60;101847.00;;;;10467837;28;20312;-74
2021/03/07 22:06:45;;;;;;;16.77;9.17;;;;;3.60;101846.00;;;;10490073;28;20263;-74
2021/03/07 22:11:46;;;;;;;13.37;8.70;;;;;3.60;101845.00;;;;10501676;28;20647;-75
2021/03/07 22:17:08;;;;;;;13.53;8.83;;;;;3.70;101842.00;;;;10538140;28;20295;-74
2021/03/07 22:22:09;;;;;;;13.37;9.00;;;;;3.70;101844.00;;;;10462278;28;20243;-75
2021/03/07 22:27:10;;;;;;;12.17;7.83;;;;;3.70;101840.00;;;;10496917;28;20197;-75
2021/03/07 22:32:12;;;;;;;13.27;8.47;;;;;3.70;101831.00;;;;10464094;28;20259;-75
2021/03/07 22:37:13;;;;;;;14.83;8.80;;;;;3.60;101831.00;;;;10510535;28;20205;-75
2021/03/07 22:42:14;;;;;;;14.57;9.27;;;;;3.60;101822.00;;;;10498875;28;20189;-74
2021/03/07 22:47:16;;;;;;;14.03;8.83;;;;;3.60;101828.00;;;;10546040;28;20222;-75
2021/03/07 22:52:17;;;;;;;12.97;9.30;;;;;3.60;101829.00;;;;10512284;28;20197;-75
2021/03/07 22:57:19;;;;;;;12.80;9.40;;;;;3.60;101829.00;;;;10491714;28;20726;-75
2021/03/07 23:02:20;;;;;;;16.70;9.73;;;;;3.60;101824.00;;;;10535058;27;20204;-75
2021/03/07 23:07:22;;;;;;;17.60;10.00;;;;;3.60;101823.00;;;;10523714;28;20193;-75
2021/03/07 23:12:23;;;;;;;15.17;9.77;;;;;3.60;101809.00;;;;10525033;28;20205;-75
2021/03/07 23:17:25;;;;;;;18.57;11.17;;;;;3.60;101810.00;;;;10524954;28;20209;-75
2021/03/07 23:22:26;;;;;;;16.40;10.63;;;;;3.60;101803.00;;;;10525301;28;20207;-75
2021/03/07 23:27:27;;;;;;;17.03;10.60;;;;;3.60;101816.00;;;;10508081;28;20242;-75
2021/03/07 23:32:29;;;;;;;16.30;10.77;;;;;3.60;101809.00;;;;10524752;28;20192;-75
2021/03/07 23:37:30;;;;;;;16.07;10.50;;;;;3.60;101797.00;;;;10490714;28;20280;-75
2021/03/07 23:42:31;;;;;;;17.87;10.83;;;;;3.60;101790.00;;;;10507404;28;20220;-75
2021/03/07 23:47:33;;;;;;;19.63;11.13;;;;;3.50;101785.00;;;;10490157;28;20189;-75
2021/03/07 23:52:34;;;;;;;20.97;12.00;;;;;3.50;101788.00;;;;10506682;28;20677;-75
2021/03/07 23:57:36;;;;;;;16.07;10.93;;;;;3.50;101781.00;;;;10506636;28;20230;-75
